GEC16K EINN-EGNX
Flight info
| Callsign | GEC16K |
|---|---|
| Flight time | 0h 50m |
| Altitude | 33000 |
| Route | OSGAR3B OSGAR DCT KLY DCT DEXEN UY124 DOLOP |
| Aircraft | B77L/H-SDE1E2E3FGHIJ2J3J4J5M1RWXY/LB1D1 |
Departure
| Time | 2026-05-06 18:04 |
|---|---|
| Airport | Shannon Airport (EINN) |
Arrival
| Time | 2026-05-06 18:55 |
|---|---|
| Airport | East Midlands Airport (EGNX) |
| Time | Latitude | Longitude | Altitude | Speed | Heading |
|---|---|---|---|---|---|
| 2026-05-06 17:40 | 52.69144 | -8.91502 | 27 ft | 0 kts | 178° |
| 2026-05-06 17:54 | 52.69145 | -8.91502 | 27 ft | 2 kts | 178° |
| 2026-05-06 17:54 | 52.69166 | -8.91493 | 25 ft | 4 kts | 210° |
| 2026-05-06 17:55 | 52.69184 | -8.91485 | 24 ft | 4 kts | 169° |
| 2026-05-06 17:55 | 52.69205 | -8.91505 | 24 ft | 3 kts | 131° |
| 2026-05-06 17:55 | 52.69221 | -8.91531 | 25 ft | 4 kts | 148° |
| 2026-05-06 17:55 | 52.69239 | -8.91553 | 24 ft | 2 kts | 130° |
| 2026-05-06 17:56 | 52.69255 | -8.91585 | 25 ft | 4 kts | 130° |
| 2026-05-06 17:56 | 52.69273 | -8.91619 | 23 ft | 4 kts | 130° |
| 2026-05-06 17:56 | 52.69286 | -8.91644 | 25 ft | 0 kts | 130° |
| 2026-05-06 17:58 | 52.69283 | -8.91639 | 25 ft | 2 kts | 130° |
| 2026-05-06 17:58 | 52.69263 | -8.91596 | 26 ft | 7 kts | 122° |
| 2026-05-06 17:59 | 52.69281 | -8.91516 | 27 ft | 10 kts | 30° |
| 2026-05-06 17:59 | 52.69352 | -8.91474 | 27 ft | 11 kts | 18° |
| 2026-05-06 17:59 | 52.69424 | -8.91435 | 27 ft | 12 kts | 18° |
| 2026-05-06 17:59 | 52.69507 | -8.91390 | 27 ft | 14 kts | 18° |
| 2026-05-06 18:00 | 52.69597 | -8.91340 | 27 ft | 14 kts | 19° |
| 2026-05-06 18:00 | 52.69707 | -8.91277 | 27 ft | 20 kts | 18° |
| 2026-05-06 18:00 | 52.69839 | -8.91206 | 27 ft | 20 kts | 19° |
| 2026-05-06 18:00 | 52.69969 | -8.91132 | 27 ft | 20 kts | 18° |
| 2026-05-06 18:01 | 52.70100 | -8.91061 | 27 ft | 20 kts | 18° |
| 2026-05-06 18:01 | 52.70231 | -8.90988 | 27 ft | 20 kts | 18° |
| 2026-05-06 18:01 | 52.70362 | -8.90916 | 27 ft | 20 kts | 18° |
| 2026-05-06 18:01 | 52.70493 | -8.90844 | 27 ft | 20 kts | 18° |
| 2026-05-06 18:02 | 52.70623 | -8.90772 | 27 ft | 20 kts | 18° |
| 2026-05-06 18:02 | 52.70735 | -8.90708 | 27 ft | 16 kts | 18° |
| 2026-05-06 18:02 | 52.70816 | -8.90666 | 27 ft | 12 kts | 17° |
| 2026-05-06 18:02 | 52.70893 | -8.90676 | 27 ft | 11 kts | 332° |
| 2026-05-06 18:03 | 52.70954 | -8.90753 | 27 ft | 8 kts | 322° |
| 2026-05-06 18:03 | 52.70981 | -8.90805 | 27 ft | 5 kts | 285° |
| 2026-05-06 18:03 | 52.70966 | -8.90861 | 27 ft | 5 kts | 235° |
| 2026-05-06 18:03 | 52.70899 | -8.91006 | 28 ft | 34 kts | 232° |
| 2026-05-06 18:04 | 52.70613 | -8.91610 | 30 ft | 101 kts | 232° |
| 2026-05-06 18:04 | 52.70062 | -8.92781 | 39 ft | 155 kts | 232° |
| 2026-05-06 18:04 | 52.69338 | -8.94371 | 201 ft | 181 kts | 233° |
| 2026-05-06 18:04 | 52.68638 | -8.96093 | 773 ft | 181 kts | 242° |
| 2026-05-06 18:05 | 52.68416 | -8.98108 | 1231 ft | 188 kts | 287° |
| 2026-05-06 18:05 | 52.69100 | -8.99868 | 1809 ft | 179 kts | 311° |
| 2026-05-06 18:05 | 52.69833 | -9.01495 | 2397 ft | 180 kts | 303° |
| 2026-05-06 18:05 | 52.70498 | -9.03295 | 2875 ft | 185 kts | 299° |
| 2026-05-06 18:06 | 52.71101 | -9.05180 | 3455 ft | 187 kts | 296° |
| 2026-05-06 18:06 | 52.71694 | -9.07104 | 3945 ft | 191 kts | 295° |
| 2026-05-06 18:06 | 52.72591 | -9.08843 | 4146 ft | 215 kts | 329° |
| 2026-05-06 18:06 | 52.74111 | -9.09433 | 4371 ft | 240 kts | 2° |
| 2026-05-06 18:07 | 52.75772 | -9.08550 | 4596 ft | 265 kts | 37° |
| 2026-05-06 18:07 | 52.76934 | -9.06186 | 5110 ft | 271 kts | 67° |
| 2026-05-06 18:07 | 52.77561 | -9.03210 | 5741 ft | 276 kts | 76° |
| 2026-05-06 18:07 | 52.78039 | -9.00113 | 6501 ft | 281 kts | 78° |
| 2026-05-06 18:08 | 52.78500 | -8.96947 | 7233 ft | 285 kts | 78° |
| 2026-05-06 18:08 | 52.78967 | -8.93760 | 8025 ft | 286 kts | 77° |
| 2026-05-06 18:08 | 52.79447 | -8.90557 | 8768 ft | 289 kts | 77° |
| 2026-05-06 18:08 | 52.79944 | -8.87314 | 9498 ft | 293 kts | 76° |
| 2026-05-06 18:09 | 52.80456 | -8.84029 | 10201 ft | 297 kts | 75° |
| 2026-05-06 18:09 | 52.80992 | -8.80636 | 10544 ft | 316 kts | 75° |
| 2026-05-06 18:09 | 52.81575 | -8.76987 | 10738 ft | 340 kts | 75° |
| 2026-05-06 18:09 | 52.82205 | -8.73071 | 10926 ft | 364 kts | 75° |
| 2026-05-06 18:10 | 52.82873 | -8.68930 | 11384 ft | 379 kts | 75° |
| 2026-05-06 18:10 | 52.83561 | -8.64666 | 12099 ft | 388 kts | 75° |
| 2026-05-06 18:10 | 52.84257 | -8.60340 | 12989 ft | 392 kts | 75° |
| 2026-05-06 18:10 | 52.84962 | -8.55952 | 13886 ft | 397 kts | 75° |
| 2026-05-06 18:11 | 52.85674 | -8.51510 | 14669 ft | 402 kts | 75° |
| 2026-05-06 18:11 | 52.86383 | -8.47074 | 15440 ft | 406 kts | 75° |
| 2026-05-06 18:11 | 52.87108 | -8.42527 | 16209 ft | 411 kts | 75° |
| 2026-05-06 18:11 | 52.87840 | -8.37929 | 16985 ft | 415 kts | 75° |
| 2026-05-06 18:12 | 52.88579 | -8.33275 | 17742 ft | 420 kts | 75° |
| 2026-05-06 18:12 | 52.89323 | -8.28574 | 18457 ft | 425 kts | 75° |
| 2026-05-06 18:12 | 52.90074 | -8.23813 | 19135 ft | 428 kts | 75° |
| 2026-05-06 18:12 | 52.90827 | -8.19030 | 19847 ft | 430 kts | 75° |
| 2026-05-06 18:13 | 52.91581 | -8.14223 | 20557 ft | 432 kts | 75° |
| 2026-05-06 18:13 | 52.92339 | -8.09384 | 21246 ft | 435 kts | 75° |
| 2026-05-06 18:13 | 52.93098 | -8.04513 | 21899 ft | 439 kts | 75° |
| 2026-05-06 18:13 | 52.93864 | -7.99590 | 22558 ft | 442 kts | 75° |
| 2026-05-06 18:14 | 52.94633 | -7.94635 | 23205 ft | 445 kts | 75° |
| 2026-05-06 18:14 | 52.95405 | -7.89643 | 23803 ft | 448 kts | 75° |
| 2026-05-06 18:14 | 52.96179 | -7.84617 | 24350 ft | 451 kts | 75° |
| 2026-05-06 18:14 | 52.96959 | -7.79546 | 24859 ft | 455 kts | 75° |
| 2026-05-06 18:15 | 52.97740 | -7.74448 | 25376 ft | 458 kts | 75° |
| 2026-05-06 18:15 | 52.98523 | -7.69321 | 25885 ft | 461 kts | 75° |
| 2026-05-06 18:15 | 52.99310 | -7.64150 | 26386 ft | 464 kts | 75° |
| 2026-05-06 18:15 | 53.00081 | -7.58927 | 26863 ft | 468 kts | 75° |
| 2026-05-06 18:16 | 53.00841 | -7.53651 | 27302 ft | 472 kts | 75° |
| 2026-05-06 18:16 | 53.01623 | -7.48343 | 27792 ft | 475 kts | 75° |
| 2026-05-06 18:16 | 53.02431 | -7.43017 | 28302 ft | 476 kts | 74° |
| 2026-05-06 18:16 | 53.03257 | -7.37672 | 28788 ft | 478 kts | 73° |
| 2026-05-06 18:17 | 53.04085 | -7.32304 | 29233 ft | 481 kts | 73° |
| 2026-05-06 18:17 | 53.04922 | -7.26904 | 29618 ft | 484 kts | 72° |
| 2026-05-06 18:17 | 53.05897 | -7.21557 | 30032 ft | 485 kts | 70° |
| 2026-05-06 18:17 | 53.06932 | -7.16230 | 30526 ft | 483 kts | 70° |
| 2026-05-06 18:18 | 53.07972 | -7.10951 | 31115 ft | 478 kts | 69° |
| 2026-05-06 18:18 | 53.09004 | -7.05713 | 31696 ft | 474 kts | 69° |
| 2026-05-06 18:18 | 53.10021 | -7.00515 | 32263 ft | 471 kts | 69° |
| 2026-05-06 18:18 | 53.11024 | -6.95348 | 32788 ft | 468 kts | 69° |
| 2026-05-06 18:19 | 53.12020 | -6.90189 | 32992 ft | 470 kts | 69° |
| 2026-05-06 18:19 | 53.13019 | -6.84989 | 32974 ft | 471 kts | 69° |
| 2026-05-06 18:19 | 53.14997 | -6.74633 | 32962 ft | 467 kts | 69° |
| 2026-05-06 18:20 | 53.16939 | -6.64403 | 32978 ft | 465 kts | 69° |
| 2026-05-06 18:20 | 53.18885 | -6.54107 | 32973 ft | 466 kts | 69° |
| 2026-05-06 18:21 | 53.20824 | -6.43801 | 32968 ft | 467 kts | 69° |
| 2026-05-06 18:21 | 53.22759 | -6.33454 | 32972 ft | 468 kts | 69° |
| 2026-05-06 18:22 | 53.24693 | -6.23074 | 32975 ft | 469 kts | 70° |
| 2026-05-06 18:22 | 53.26495 | -6.12593 | 32990 ft | 472 kts | 75° |
| 2026-05-06 18:23 | 53.27251 | -6.01647 | 32975 ft | 478 kts | 85° |
| 2026-05-06 18:23 | 53.27385 | -5.90541 | 32981 ft | 478 kts | 85° |
| 2026-05-06 18:24 | 53.27535 | -5.79436 | 32986 ft | 478 kts | 85° |
| 2026-05-06 18:24 | 53.27714 | -5.68343 | 32991 ft | 478 kts | 85° |
| 2026-05-06 18:25 | 53.27891 | -5.57246 | 32991 ft | 478 kts | 85° |
| 2026-05-06 18:25 | 53.27944 | -5.46148 | 32993 ft | 479 kts | 89° |
| 2026-05-06 18:26 | 53.27609 | -5.35021 | 32994 ft | 480 kts | 90° |
| 2026-05-06 18:26 | 53.27265 | -5.23896 | 32994 ft | 479 kts | 89° |
| 2026-05-06 18:27 | 53.26935 | -5.12781 | 33013 ft | 479 kts | 90° |
| 2026-05-06 18:27 | 53.26560 | -5.01654 | 33001 ft | 480 kts | 90° |
| 2026-05-06 18:28 | 53.26177 | -4.90516 | 33003 ft | 481 kts | 90° |
| 2026-05-06 18:28 | 53.25796 | -4.79443 | 33004 ft | 481 kts | 90° |
| 2026-05-06 18:29 | 53.25402 | -4.68287 | 32994 ft | 481 kts | 90° |
| 2026-05-06 18:29 | 53.25021 | -4.57141 | 33002 ft | 481 kts | 90° |
| 2026-05-06 18:30 | 53.24636 | -4.45974 | 33001 ft | 482 kts | 90° |
| 2026-05-06 18:30 | 53.24241 | -4.34798 | 32989 ft | 482 kts | 90° |
| 2026-05-06 18:31 | 53.23834 | -4.23627 | 33027 ft | 482 kts | 90° |
| 2026-05-06 18:31 | 53.23418 | -4.12465 | 32994 ft | 482 kts | 90° |
| 2026-05-06 18:32 | 53.23206 | -4.06808 | 32107 ft | 495 kts | 91° |
| 2026-05-06 18:32 | 53.22986 | -4.01074 | 31301 ft | 495 kts | 91° |
| 2026-05-06 18:32 | 53.22759 | -3.95343 | 30433 ft | 495 kts | 92° |
| 2026-05-06 18:32 | 53.22522 | -3.89647 | 29806 ft | 489 kts | 92° |
| 2026-05-06 18:33 | 53.22283 | -3.84019 | 29140 ft | 483 kts | 92° |
| 2026-05-06 18:33 | 53.22048 | -3.78459 | 28537 ft | 477 kts | 92° |
| 2026-05-06 18:33 | 53.21894 | -3.74816 | 28166 ft | 474 kts | 92° |
| 2026-05-06 18:33 | 53.21586 | -3.67528 | 27389 ft | 467 kts | 92° |
| 2026-05-06 18:34 | 53.21432 | -3.63970 | 27015 ft | 464 kts | 93° |
| 2026-05-06 18:34 | 53.21198 | -3.58630 | 26553 ft | 459 kts | 93° |
| 2026-05-06 18:34 | 53.20964 | -3.53341 | 26109 ft | 457 kts | 93° |
| 2026-05-06 18:34 | 53.20729 | -3.48044 | 25660 ft | 458 kts | 93° |
| 2026-05-06 18:35 | 53.20493 | -3.42743 | 25214 ft | 460 kts | 93° |
| 2026-05-06 18:35 | 53.20256 | -3.37425 | 24756 ft | 458 kts | 94° |
| 2026-05-06 18:35 | 53.20019 | -3.32141 | 24303 ft | 456 kts | 94° |
| 2026-05-06 18:35 | 53.19779 | -3.26886 | 23867 ft | 454 kts | 94° |
| 2026-05-06 18:36 | 53.19501 | -3.21656 | 23372 ft | 450 kts | 98° |
| 2026-05-06 18:36 | 53.18613 | -3.16696 | 22854 ft | 447 kts | 118° |
| 2026-05-06 18:36 | 53.16928 | -3.12433 | 22450 ft | 436 kts | 126° |
| 2026-05-06 18:36 | 53.15220 | -3.08238 | 22001 ft | 438 kts | 123° |
| 2026-05-06 18:37 | 53.13585 | -3.03951 | 21558 ft | 439 kts | 123° |
| 2026-05-06 18:37 | 53.11974 | -2.99641 | 21137 ft | 437 kts | 123° |
| 2026-05-06 18:37 | 53.10361 | -2.95364 | 20685 ft | 435 kts | 123° |
| 2026-05-06 18:37 | 53.08750 | -2.91128 | 20256 ft | 431 kts | 122° |
| 2026-05-06 18:38 | 53.07464 | -2.86687 | 19842 ft | 426 kts | 106° |
| 2026-05-06 18:38 | 53.07042 | -2.81953 | 19602 ft | 418 kts | 95° |
| 2026-05-06 18:38 | 53.06758 | -2.77110 | 19319 ft | 424 kts | 97° |
| 2026-05-06 18:38 | 53.06396 | -2.72231 | 19022 ft | 426 kts | 97° |
| 2026-05-06 18:39 | 53.06002 | -2.67352 | 18706 ft | 425 kts | 98° |
| 2026-05-06 18:39 | 53.05601 | -2.62488 | 18403 ft | 423 kts | 98° |
| 2026-05-06 18:39 | 53.05202 | -2.57662 | 18062 ft | 421 kts | 98° |
| 2026-05-06 18:40 | 53.04419 | -2.48135 | 17437 ft | 416 kts | 98° |
| 2026-05-06 18:40 | 53.04031 | -2.43393 | 17144 ft | 413 kts | 98° |
| 2026-05-06 18:40 | 53.03643 | -2.38686 | 16857 ft | 410 kts | 98° |
| 2026-05-06 18:40 | 53.03253 | -2.34005 | 16562 ft | 408 kts | 98° |
| 2026-05-06 18:41 | 53.02911 | -2.29357 | 16260 ft | 402 kts | 93° |
| 2026-05-06 18:41 | 53.02944 | -2.24724 | 15981 ft | 400 kts | 85° |
| 2026-05-06 18:41 | 53.03188 | -2.20132 | 15719 ft | 399 kts | 83° |
| 2026-05-06 18:41 | 53.03465 | -2.15537 | 15441 ft | 399 kts | 84° |
| 2026-05-06 18:42 | 53.03710 | -2.10964 | 15079 ft | 398 kts | 84° |
| 2026-05-06 18:42 | 53.03918 | -2.06362 | 14584 ft | 399 kts | 85° |
| 2026-05-06 18:42 | 53.04100 | -2.01762 | 14107 ft | 398 kts | 85° |
| 2026-05-06 18:42 | 53.04273 | -1.97189 | 13603 ft | 395 kts | 85° |
| 2026-05-06 18:43 | 53.04442 | -1.92661 | 13064 ft | 391 kts | 85° |
| 2026-05-06 18:43 | 53.04609 | -1.88175 | 12537 ft | 387 kts | 85° |
| 2026-05-06 18:43 | 53.04718 | -1.83742 | 12015 ft | 382 kts | 91° |
| 2026-05-06 18:43 | 53.04372 | -1.79545 | 11499 ft | 376 kts | 104° |
| 2026-05-06 18:44 | 53.03429 | -1.75595 | 10912 ft | 363 kts | 120° |
| 2026-05-06 18:44 | 53.01895 | -1.72374 | 10296 ft | 350 kts | 139° |
| 2026-05-06 18:44 | 52.99872 | -1.70293 | 9662 ft | 339 kts | 161° |
| 2026-05-06 18:44 | 52.97606 | -1.69691 | 9103 ft | 323 kts | 185° |
| 2026-05-06 18:45 | 52.95467 | -1.70360 | 8680 ft | 306 kts | 197° |
| 2026-05-06 18:45 | 52.93473 | -1.71354 | 8259 ft | 293 kts | 200° |
| 2026-05-06 18:45 | 52.91705 | -1.72806 | 7780 ft | 278 kts | 219° |
| 2026-05-06 18:45 | 52.90246 | -1.74787 | 7375 ft | 265 kts | 224° |
| 2026-05-06 18:46 | 52.88891 | -1.76794 | 6881 ft | 258 kts | 225° |
| 2026-05-06 18:46 | 52.87579 | -1.78758 | 6358 ft | 252 kts | 225° |
| 2026-05-06 18:46 | 52.86365 | -1.80777 | 5820 ft | 243 kts | 239° |
| 2026-05-06 18:46 | 52.85796 | -1.83310 | 5274 ft | 232 kts | 266° |
| 2026-05-06 18:47 | 52.85488 | -1.85906 | 4726 ft | 232 kts | 246° |
| 2026-05-06 18:47 | 52.84459 | -1.87946 | 4183 ft | 235 kts | 212° |
| 2026-05-06 18:47 | 52.82957 | -1.88739 | 3807 ft | 228 kts | 178° |
| 2026-05-06 18:47 | 52.81507 | -1.88083 | 3551 ft | 211 kts | 143° |
| 2026-05-06 18:48 | 52.80599 | -1.86325 | 3217 ft | 198 kts | 108° |
| 2026-05-06 18:48 | 52.80462 | -1.84189 | 3033 ft | 179 kts | 82° |
| 2026-05-06 18:48 | 52.80720 | -1.82150 | 2994 ft | 181 kts | 76° |
| 2026-05-06 18:48 | 52.81039 | -1.80150 | 2980 ft | 178 kts | 76° |
| 2026-05-06 18:49 | 52.81356 | -1.78194 | 2984 ft | 176 kts | 76° |
| 2026-05-06 18:49 | 52.81673 | -1.76250 | 2989 ft | 174 kts | 75° |
| 2026-05-06 18:49 | 52.81988 | -1.74315 | 3004 ft | 174 kts | 76° |
| 2026-05-06 18:49 | 52.82252 | -1.72336 | 3000 ft | 179 kts | 83° |
| 2026-05-06 18:50 | 52.82369 | -1.70292 | 2997 ft | 177 kts | 86° |
| 2026-05-06 18:50 | 52.82432 | -1.68261 | 2985 ft | 177 kts | 88° |
| 2026-05-06 18:50 | 52.82477 | -1.66243 | 2987 ft | 176 kts | 88° |
| 2026-05-06 18:50 | 52.82516 | -1.64221 | 2997 ft | 176 kts | 88° |
| 2026-05-06 18:51 | 52.82555 | -1.62192 | 2986 ft | 177 kts | 89° |
| 2026-05-06 18:51 | 52.82592 | -1.60161 | 3005 ft | 177 kts | 88° |
| 2026-05-06 18:51 | 52.82630 | -1.58126 | 2980 ft | 177 kts | 88° |
| 2026-05-06 18:51 | 52.82667 | -1.56108 | 2958 ft | 176 kts | 88° |
| 2026-05-06 18:52 | 52.82703 | -1.54126 | 2700 ft | 165 kts | 88° |
| 2026-05-06 18:52 | 52.82737 | -1.52303 | 2517 ft | 154 kts | 89° |
| 2026-05-06 18:52 | 52.82767 | -1.50562 | 2299 ft | 150 kts | 86° |
| 2026-05-06 18:52 | 52.82802 | -1.48815 | 2107 ft | 154 kts | 86° |
| 2026-05-06 18:53 | 52.82835 | -1.47081 | 1871 ft | 147 kts | 87° |
| 2026-05-06 18:53 | 52.82864 | -1.45428 | 1678 ft | 142 kts | 86° |
| 2026-05-06 18:53 | 52.82895 | -1.43791 | 1478 ft | 143 kts | 86° |
| 2026-05-06 18:53 | 52.82925 | -1.42160 | 1276 ft | 141 kts | 86° |
| 2026-05-06 18:54 | 52.82957 | -1.40549 | 1075 ft | 142 kts | 85° |
| 2026-05-06 18:54 | 52.82989 | -1.38917 | 850 ft | 142 kts | 88° |
| 2026-05-06 18:54 | 52.83012 | -1.37305 | 681 ft | 141 kts | 88° |
| 2026-05-06 18:54 | 52.83054 | -1.35681 | 465 ft | 140 kts | 88° |
| 2026-05-06 18:55 | 52.83077 | -1.34091 | 322 ft | 134 kts | 88° |
| 2026-05-06 18:55 | 52.83102 | -1.32727 | 306 ft | 97 kts | 89° |
| 2026-05-06 18:55 | 52.83116 | -1.31922 | 311 ft | 43 kts | 88° |
| 2026-05-06 18:55 | 52.83122 | -1.31575 | 313 ft | 25 kts | 88° |
| 2026-05-06 18:56 | 52.83125 | -1.31416 | 311 ft | 12 kts | 88° |
| 2026-05-06 18:56 | 52.83104 | -1.31330 | 309 ft | 8 kts | 150° |
| 2026-05-06 18:56 | 52.83055 | -1.31319 | 308 ft | 7 kts | 178° |
| 2026-05-06 18:56 | 52.82998 | -1.31318 | 305 ft | 9 kts | 183° |
| 2026-05-06 18:57 | 52.82960 | -1.31390 | 308 ft | 9 kts | 257° |
| 2026-05-06 18:57 | 52.82955 | -1.31494 | 306 ft | 9 kts | 268° |
| 2026-05-06 18:57 | 52.82953 | -1.31600 | 305 ft | 9 kts | 268° |
| 2026-05-06 18:57 | 52.82949 | -1.31671 | 307 ft | 6 kts | 257° |
| 2026-05-06 18:58 | 52.82923 | -1.31713 | 307 ft | 6 kts | 191° |
| 2026-05-06 18:58 | 52.82887 | -1.31691 | 309 ft | 6 kts | 140° |
| 2026-05-06 18:58 | 52.82862 | -1.31640 | 307 ft | 6 kts | 133° |
| 2026-05-06 18:58 | 52.82835 | -1.31592 | 307 ft | 6 kts | 133° |
| 2026-05-06 18:59 | 52.82822 | -1.31568 | 308 ft | 1 kts | 133° |
| 2026-05-06 18:59 | 52.82819 | -1.31564 | 309 ft | 0 kts | 133° |